sensor_id;sensor_type;location;lat;lon;timestamp;pressure;altitude;pressure_sealevel;temperature;humidity
49611;BME280;35515;48.766;9.176;2022-09-01T00:00:37;98568.41;;;17.55;85.60
49611;BME280;35515;48.766;9.176;2022-09-01T00:03:06;98570.63;;;17.42;86.60
49611;BME280;35515;48.766;9.176;2022-09-01T00:05:35;98573.88;;;17.38;86.41
49611;BME280;35515;48.766;9.176;2022-09-01T00:08:02;98580.19;;;17.39;85.93
49611;BME280;35515;48.766;9.176;2022-09-01T00:10:28;98574.88;;;17.32;86.24
49611;BME280;35515;48.766;9.176;2022-09-01T00:12:55;98572.88;;;17.28;86.36
49611;BME280;35515;48.766;9.176;2022-09-01T00:15:21;98566.00;;;17.25;86.64
49611;BME280;35515;48.766;9.176;2022-09-01T00:17:49;98575.81;;;17.38;85.62
49611;BME280;35515;48.766;9.176;2022-09-01T00:20:16;98575.53;;;17.23;86.55
49611;BME280;35515;48.766;9.176;2022-09-01T00:22:43;98576.34;;;17.23;86.88
49611;BME280;35515;48.766;9.176;2022-09-01T00:25:09;98569.53;;;17.26;86.79
49611;BME280;35515;48.766;9.176;2022-09-01T00:27:36;98571.88;;;17.17;87.87
49611;BME280;35515;48.766;9.176;2022-09-01T00:30:03;98572.59;;;17.12;88.41
49611;BME280;35515;48.766;9.176;2022-09-01T00:32:30;98571.41;;;17.37;86.15
49611;BME280;35515;48.766;9.176;2022-09-01T00:34:58;98579.19;;;17.28;86.53
49611;BME280;35515;48.766;9.176;2022-09-01T00:37:25;98570.06;;;17.23;87.06
49611;BME280;35515;48.766;9.176;2022-09-01T00:39:51;98571.72;;;17.24;86.45
49611;BME280;35515;48.766;9.176;2022-09-01T00:42:18;98561.75;;;17.17;86.49
49611;BME280;35515;48.766;9.176;2022-09-01T00:44:45;98560.34;;;17.32;85.04
49611;BME280;35515;48.766;9.176;2022-09-01T00:47:11;98566.56;;;17.10;86.58
49611;BME280;35515;48.766;9.176;2022-09-01T00:49:42;98563.41;;;17.18;86.35
49611;BME280;35515;48.766;9.176;2022-09-01T00:52:16;98566.63;;;16.98;87.67
49611;BME280;35515;48.766;9.176;2022-09-01T00:54:47;98564.88;;;17.09;87.01
49611;BME280;35515;48.766;9.176;2022-09-01T00:57:15;98566.25;;;17.24;85.74
49611;BME280;35515;48.766;9.176;2022-09-01T00:59:45;98559.41;;;17.09;86.64
49611;BME280;35515;48.766;9.176;2022-09-01T01:02:12;98563.22;;;17.08;86.60
49611;BME280;35515;48.766;9.176;2022-09-01T01:04:39;98557.19;;;17.06;86.70
49611;BME280;35515;48.766;9.176;2022-09-01T01:07:08;98566.50;;;16.93;87.92
49611;BME280;35515;48.766;9.176;2022-09-01T01:09:39;98561.03;;;16.93;88.10
49611;BME280;35515;48.766;9.176;2022-09-01T01:12:07;98557.59;;;17.15;85.73
49611;BME280;35515;48.766;9.176;2022-09-01T01:14:36;98557.75;;;17.08;86.16
49611;BME280;35515;48.766;9.176;2022-09-01T01:17:04;98560.38;;;17.03;86.10
49611;BME280;35515;48.766;9.176;2022-09-01T01:19:39;98565.19;;;16.96;86.70
49611;BME280;35515;48.766;9.176;2022-09-01T01:22:30;98565.53;;;16.99;85.81
49611;BME280;35515;48.766;9.176;2022-09-01T01:25:20;98563.31;;;17.13;85.17
49611;BME280;35515;48.766;9.176;2022-09-01T01:27:48;98561.47;;;17.02;85.34
49611;BME280;35515;48.766;9.176;2022-09-01T01:30:16;98557.56;;;16.86;86.89
49611;BME280;35515;48.766;9.176;2022-09-01T01:32:44;98569.25;;;16.81;87.39
49611;BME280;35515;48.766;9.176;2022-09-01T01:35:14;98568.75;;;16.84;87.34
49611;BME280;35515;48.766;9.176;2022-09-01T01:37:42;98560.59;;;16.72;88.17
49611;BME280;35515;48.766;9.176;2022-09-01T01:40:11;98570.72;;;16.72;88.59
49611;BME280;35515;48.766;9.176;2022-09-01T01:42:42;98567.03;;;16.78;88.26
49611;BME280;35515;48.766;9.176;2022-09-01T01:45:10;98564.44;;;16.71;88.79
49611;BME280;35515;48.766;9.176;2022-09-01T01:47:40;98567.03;;;16.78;88.40
49611;BME280;35515;48.766;9.176;2022-09-01T01:50:08;98560.00;;;16.82;87.90
49611;BME280;35515;48.766;9.176;2022-09-01T01:52:37;98562.81;;;16.87;86.26
49611;BME280;35515;48.766;9.176;2022-09-01T01:55:04;98566.03;;;16.84;86.32
49611;BME280;35515;48.766;9.176;2022-09-01T01:57:35;98566.06;;;16.72;87.58
49611;BME280;35515;48.766;9.176;2022-09-01T02:00:06;98573.50;;;16.60;88.37
49611;BME280;35515;48.766;9.176;2022-09-01T02:02:33;98568.63;;;16.62;88.42
49611;BME280;35515;48.766;9.176;2022-09-01T02:05:02;98572.88;;;16.70;87.50
49611;BME280;35515;48.766;9.176;2022-09-01T02:07:29;98570.44;;;16.85;86.28
49611;BME280;35515;48.766;9.176;2022-09-01T02:09:57;98567.38;;;16.70;87.34
49611;BME280;35515;48.766;9.176;2022-09-01T02:12:23;98577.16;;;16.66;87.09
49611;BME280;35515;48.766;9.176;2022-09-01T02:14:50;98573.34;;;16.67;87.14
49611;BME280;35515;48.766;9.176;2022-09-01T02:17:21;98565.47;;;16.82;85.51
49611;BME280;35515;48.766;9.176;2022-09-01T02:19:47;98572.16;;;16.75;85.34
49611;BME280;35515;48.766;9.176;2022-09-01T02:22:14;98568.09;;;16.77;85.37
49611;BME280;35515;48.766;9.176;2022-09-01T02:24:45;98568.06;;;16.48;87.84
49611;BME280;35515;48.766;9.176;2022-09-01T02:27:14;98568.88;;;16.61;86.31
49611;BME280;35515;48.766;9.176;2022-09-01T02:29:50;98565.44;;;16.53;86.96
49611;BME280;35515;48.766;9.176;2022-09-01T02:32:18;98571.31;;;16.74;85.25
49611;BME280;35515;48.766;9.176;2022-09-01T02:34:47;98573.16;;;16.57;86.05
49611;BME280;35515;48.766;9.176;2022-09-01T02:37:19;98575.41;;;16.60;86.26
49611;BME280;35515;48.766;9.176;2022-09-01T02:39:50;98570.66;;;16.55;86.30
49611;BME280;35515;48.766;9.176;2022-09-01T02:42:16;98566.47;;;16.64;85.47
49611;BME280;35515;48.766;9.176;2022-09-01T02:44:46;98567.06;;;16.66;85.20
49611;BME280;35515;48.766;9.176;2022-09-01T02:47:13;98575.31;;;16.54;85.64
49611;BME280;35515;48.766;9.176;2022-09-01T02:49:40;98568.28;;;16.59;85.46
49611;BME280;35515;48.766;9.176;2022-09-01T02:52:08;98564.00;;;16.51;86.11
49611;BME280;35515;48.766;9.176;2022-09-01T02:54:35;98564.88;;;16.51;86.05
49611;BME280;35515;48.766;9.176;2022-09-01T02:57:01;98563.50;;;16.54;85.99
49611;BME280;35515;48.766;9.176;2022-09-01T02:59:28;98560.47;;;16.50;86.32
49611;BME280;35515;48.766;9.176;2022-09-01T03:01:56;98560.78;;;16.54;85.44
49611;BME280;35515;48.766;9.176;2022-09-01T03:04:23;98564.72;;;16.58;85.12
49611;BME280;35515;48.766;9.176;2022-09-01T03:06:51;98552.56;;;16.54;86.00
49611;BME280;35515;48.766;9.176;2022-09-01T03:09:21;98552.31;;;16.67;85.14
49611;BME280;35515;48.766;9.176;2022-09-01T03:11:50;98555.84;;;16.39;87.24
49611;BME280;35515;48.766;9.176;2022-09-01T03:14:18;98549.19;;;16.35;87.33
49611;BME280;35515;48.766;9.176;2022-09-01T03:16:45;98549.31;;;16.40;87.35
49611;BME280;35515;48.766;9.176;2022-09-01T03:19:11;98551.78;;;16.42;86.78
49611;BME280;35515;48.766;9.176;2022-09-01T03:21:41;98553.56;;;16.48;86.65
49611;BME280;35515;48.766;9.176;2022-09-01T03:24:09;98550.94;;;16.53;85.74
49611;BME280;35515;48.766;9.176;2022-09-01T03:26:40;98545.63;;;16.46;86.35
49611;BME280;35515;48.766;9.176;2022-09-01T03:29:07;98560.91;;;16.47;85.94
49611;BME280;35515;48.766;9.176;2022-09-01T03:31:34;98553.22;;;16.44;85.85
49611;BME280;35515;48.766;9.176;2022-09-01T03:34:02;98554.53;;;16.42;86.11
49611;BME280;35515;48.766;9.176;2022-09-01T03:36:30;98559.75;;;16.43;85.79
49611;BME280;35515;48.766;9.176;2022-09-01T03:38:58;98565.09;;;16.38;86.20
49611;BME280;35515;48.766;9.176;2022-09-01T03:41:27;98560.63;;;16.32;86.78
49611;BME280;35515;48.766;9.176;2022-09-01T03:43:57;98562.28;;;16.33;86.42
49611;BME280;35515;48.766;9.176;2022-09-01T03:46:25;98555.72;;;16.34;86.26
49611;BME280;35515;48.766;9.176;2022-09-01T03:48:55;98561.94;;;16.17;87.74
49611;BME280;35515;48.766;9.176;2022-09-01T03:51:23;98561.00;;;16.24;87.28
49611;BME280;35515;48.766;9.176;2022-09-01T03:53:51;98565.50;;;16.18;88.21
49611;BME280;35515;48.766;9.176;2022-09-01T03:56:19;98565.38;;;16.25;87.68
49611;BME280;35515;48.766;9.176;2022-09-01T03:58:46;98562.28;;;16.33;86.44
49611;BME280;35515;48.766;9.176;2022-09-01T04:01:14;98560.41;;;16.21;87.32
49611;BME280;35515;48.766;9.176;2022-09-01T04:03:41;98564.19;;;16.20;87.23
49611;BME280;35515;48.766;9.176;2022-09-01T04:06:14;98560.16;;;16.23;87.23
49611;BME280;35515;48.766;9.176;2022-09-01T04:08:42;98561.47;;;16.20;87.74
49611;BME280;35515;48.766;9.176;2022-09-01T04:11:12;98562.06;;;16.23;87.21
49611;BME280;35515;48.766;9.176;2022-09-01T04:13:41;98554.69;;;16.11;87.98
49611;BME280;35515;48.766;9.176;2022-09-01T04:16:18;98559.44;;;16.28;85.95
49611;BME280;35515;48.766;9.176;2022-09-01T04:19:03;98561.69;;;16.31;85.60
49611;BME280;35515;48.766;9.176;2022-09-01T04:21:40;98561.47;;;16.20;86.06
49611;BME280;35515;48.766;9.176;2022-09-01T04:24:07;98562.88;;;16.23;85.36
49611;BME280;35515;48.766;9.176;2022-09-01T04:26:35;98560.03;;;16.18;85.15
49611;BME280;35515;48.766;9.176;2022-09-01T04:29:02;98559.84;;;16.08;85.86
49611;BME280;35515;48.766;9.176;2022-09-01T04:31:31;98567.66;;;16.16;85.04
49611;BME280;35515;48.766;9.176;2022-09-01T04:33:57;98563.38;;;16.08;85.79
49611;BME280;35515;48.766;9.176;2022-09-01T04:36:25;98570.91;;;16.01;86.34
49611;BME280;35515;48.766;9.176;2022-09-01T04:38:56;98573.25;;;16.09;85.60
49611;BME280;35515;48.766;9.176;2022-09-01T04:41:28;98567.19;;;16.07;85.68
49611;BME280;35515;48.766;9.176;2022-09-01T04:43:57;98569.47;;;16.10;85.33
49611;BME280;35515;48.766;9.176;2022-09-01T04:46:25;98567.91;;;16.02;85.84
49611;BME280;35515;48.766;9.176;2022-09-01T04:48:54;98566.59;;;16.05;85.93
49611;BME280;35515;48.766;9.176;2022-09-01T04:51:22;98560.16;;;16.11;85.25
49611;BME280;35515;48.766;9.176;2022-09-01T04:53:53;98571.22;;;16.04;85.70
49611;BME280;35515;48.766;9.176;2022-09-01T04:56:22;98575.25;;;16.02;85.23
49611;BME280;35515;48.766;9.176;2022-09-01T04:58:50;98574.69;;;16.00;85.56
49611;BME280;35515;48.766;9.176;2022-09-01T05:01:20;98568.03;;;15.96;85.22
49611;BME280;35515;48.766;9.176;2022-09-01T05:03:48;98572.53;;;16.02;85.66
49611;BME280;35515;48.766;9.176;2022-09-01T05:06:29;98568.63;;;15.98;85.58
49611;BME280;35515;48.766;9.176;2022-09-01T05:08:58;98566.25;;;15.90;86.32
49611;BME280;35515;48.766;9.176;2022-09-01T05:11:24;98570.16;;;15.94;86.49
49611;BME280;35515;48.766;9.176;2022-09-01T05:13:52;98567.31;;;16.00;85.68
49611;BME280;35515;48.766;9.176;2022-09-01T05:16:22;98562.91;;;15.99;85.96
49611;BME280;35515;48.766;9.176;2022-09-01T05:18:50;98564.81;;;15.99;85.73
49611;BME280;35515;48.766;9.176;2022-09-01T05:21:21;98564.44;;;16.07;84.70
49611;BME280;35515;48.766;9.176;2022-09-01T05:23:50;98568.75;;;16.03;85.14
49611;BME280;35515;48.766;9.176;2022-09-01T05:26:19;98577.06;;;15.96;85.44
49611;BME280;35515;48.766;9.176;2022-09-01T05:28:49;98569.47;;;15.86;86.61
49611;BME280;35515;48.766;9.176;2022-09-01T05:31:17;98579.31;;;15.99;86.04
49611;BME280;35515;48.766;9.176;2022-09-01T05:33:44;98571.34;;;15.98;86.67
49611;BME280;35515;48.766;9.176;2022-09-01T05:36:16;98570.66;;;16.02;86.45
49611;BME280;35515;48.766;9.176;2022-09-01T05:38:43;98570.03;;;16.12;85.79
49611;BME280;35515;48.766;9.176;2022-09-01T05:41:14;98567.31;;;16.00;86.51
49611;BME280;35515;48.766;9.176;2022-09-01T05:43:43;98563.75;;;16.00;86.59
49611;BME280;35515;48.766;9.176;2022-09-01T05:46:19;98570.41;;;16.04;86.52
49611;BME280;35515;48.766;9.176;2022-09-01T05:48:49;98566.25;;;16.01;86.85
49611;BME280;35515;48.766;9.176;2022-09-01T05:51:18;98570.16;;;16.05;86.58
49611;BME280;35515;48.766;9.176;2022-09-01T05:53:47;98575.38;;;16.07;86.85
49611;BME280;35515;48.766;9.176;2022-09-01T05:56:18;98569.53;;;16.15;86.39
49611;BME280;35515;48.766;9.176;2022-09-01T05:58:45;98560.16;;;16.11;86.61
49611;BME280;35515;48.766;9.176;2022-09-01T06:01:15;98575.41;;;15.83;89.13
49611;BME280;35515;48.766;9.176;2022-09-01T06:03:47;98577.16;;;15.78;90.31
49611;BME280;35515;48.766;9.176;2022-09-01T06:06:13;98572.19;;;15.86;90.18
49611;BME280;35515;48.766;9.176;2022-09-01T06:08:41;98571.00;;;15.82;91.10
49611;BME280;35515;48.766;9.176;2022-09-01T06:11:13;98574.16;;;15.79;91.72
49611;BME280;35515;48.766;9.176;2022-09-01T06:13:42;98560.78;;;15.90;91.82
49611;BME280;35515;48.766;9.176;2022-09-01T06:16:09;98571.34;;;15.86;93.05
49611;BME280;35515;48.766;9.176;2022-09-01T06:18:36;98574.94;;;15.86;93.83
49611;BME280;35515;48.766;9.176;2022-09-01T06:21:04;98565.19;;;15.91;94.00
49611;BME280;35515;48.766;9.176;2022-09-01T06:23:32;98569.09;;;16.07;93.39
49611;BME280;35515;48.766;9.176;2022-09-01T06:26:00;98566.72;;;16.10;93.13
49611;BME280;35515;48.766;9.176;2022-09-01T06:28:28;98572.19;;;16.22;92.32
49611;BME280;35515;48.766;9.176;2022-09-01T06:30:56;98572.03;;;16.29;91.63
49611;BME280;35515;48.766;9.176;2022-09-01T06:33:23;98565.25;;;16.31;91.68
49611;BME280;35515;48.766;9.176;2022-09-01T06:35:51;98570.84;;;16.25;92.32
49611;BME280;35515;48.766;9.176;2022-09-01T06:38:20;98572.50;;;16.26;92.07
49611;BME280;35515;48.766;9.176;2022-09-01T06:40:47;98565.03;;;16.21;92.84
49611;BME280;35515;48.766;9.176;2022-09-01T06:43:14;98561.13;;;16.29;92.11
49611;BME280;35515;48.766;9.176;2022-09-01T06:45:43;98567.03;;;16.26;93.26
49611;BME280;35515;48.766;9.176;2022-09-01T06:48:15;98570.13;;;16.41;91.30
49611;BME280;35515;48.766;9.176;2022-09-01T06:50:42;98568.66;;;16.50;90.20
49611;BME280;35515;48.766;9.176;2022-09-01T06:53:10;98572.56;;;16.54;89.84
49611;BME280;35515;48.766;9.176;2022-09-01T06:55:41;98578.53;;;16.51;90.04
49611;BME280;35515;48.766;9.176;2022-09-01T06:58:09;98581.03;;;16.53;90.04
49611;BME280;35515;48.766;9.176;2022-09-01T07:00:40;98576.47;;;16.59;90.02
49611;BME280;35515;48.766;9.176;2022-09-01T07:03:08;98577.66;;;16.63;89.41
49611;BME280;35515;48.766;9.176;2022-09-01T07:05:39;98577.66;;;16.63;89.76
49611;BME280;35515;48.766;9.176;2022-09-01T07:08:07;98575.03;;;16.68;89.28
49611;BME280;35515;48.766;9.176;2022-09-01T07:10:40;98582.03;;;16.76;88.32
49611;BME280;35515;48.766;9.176;2022-09-01T07:13:10;98587.09;;;16.84;87.83
49611;BME280;35515;48.766;9.176;2022-09-01T07:15:40;98586.63;;;16.75;88.97
49611;BME280;35515;48.766;9.176;2022-09-01T07:18:07;98584.63;;;16.82;88.19
49611;BME280;35515;48.766;9.176;2022-09-01T07:20:34;98588.41;;;16.81;88.09
49611;BME280;35515;48.766;9.176;2022-09-01T07:23:05;98585.56;;;16.76;88.39
49611;BME280;35515;48.766;9.176;2022-09-01T07:25:32;98587.09;;;16.96;88.01
49611;BME280;35515;48.766;9.176;2022-09-01T07:28:03;98591.97;;;16.94;88.03
49611;BME280;35515;48.766;9.176;2022-09-01T07:30:30;98589.81;;;16.96;87.63
49611;BME280;35515;48.766;9.176;2022-09-01T07:32:57;98592.31;;;16.97;87.41
49611;BME280;35515;48.766;9.176;2022-09-01T07:35:24;98596.38;;;16.95;87.82
49611;BME280;35515;48.766;9.176;2022-09-01T07:37:51;98589.41;;;17.04;86.91
49611;BME280;35515;48.766;9.176;2022-09-01T07:40:21;98590.25;;;17.04;86.68
49611;BME280;35515;48.766;9.176;2022-09-01T07:42:52;98594.91;;;17.04;86.71
49611;BME280;35515;48.766;9.176;2022-09-01T07:45:19;98602.03;;;17.05;87.03
49611;BME280;35515;48.766;9.176;2022-09-01T07:47:46;98598.00;;;17.25;85.65
49611;BME280;35515;48.766;9.176;2022-09-01T07:50:13;98600.41;;;17.21;86.29
49611;BME280;35515;48.766;9.176;2022-09-01T07:52:40;98602.13;;;17.10;87.14
49611;BME280;35515;48.766;9.176;2022-09-01T07:55:09;98603.97;;;17.21;86.48
49611;BME280;35515;48.766;9.176;2022-09-01T07:57:38;98602.41;;;17.26;86.09
49611;BME280;35515;48.766;9.176;2022-09-01T08:00:08;98603.66;;;17.35;85.53
49611;BME280;35515;48.766;9.176;2022-09-01T08:02:35;98606.00;;;17.26;86.11
49611;BME280;35515;48.766;9.176;2022-09-01T08:05:04;98610.81;;;17.36;85.96
49611;BME280;35515;48.766;9.176;2022-09-01T08:07:31;98611.97;;;17.40;85.49
49611;BME280;35515;48.766;9.176;2022-09-01T08:09:58;98608.16;;;17.41;85.35
49611;BME280;35515;48.766;9.176;2022-09-01T08:12:25;98612.72;;;17.52;84.84
49611;BME280;35515;48.766;9.176;2022-09-01T08:14:53;98613.47;;;17.48;84.66
49611;BME280;35515;48.766;9.176;2022-09-01T08:17:20;98611.56;;;17.48;84.82
49611;BME280;35515;48.766;9.176;2022-09-01T08:19:46;98620.03;;;17.64;83.17
49611;BME280;35515;48.766;9.176;2022-09-01T08:22:13;98613.31;;;17.54;83.75
49611;BME280;35515;48.766;9.176;2022-09-01T08:24:40;98615.81;;;17.56;83.79
49611;BME280;35515;48.766;9.176;2022-09-01T08:27:07;98621.88;;;17.58;83.80
49611;BME280;35515;48.766;9.176;2022-09-01T08:29:33;98615.81;;;17.56;84.15
49611;BME280;35515;48.766;9.176;2022-09-01T08:32:02;98612.91;;;17.63;83.24
49611;BME280;35515;48.766;9.176;2022-09-01T08:34:31;98623.69;;;17.86;81.69
49611;BME280;35515;48.766;9.176;2022-09-01T08:36:57;98613.56;;;17.70;82.45
49611;BME280;35515;48.766;9.176;2022-09-01T08:39:24;98621.72;;;17.65;82.65
49611;BME280;35515;48.766;9.176;2022-09-01T08:41:57;98615.56;;;17.75;82.03
49611;BME280;35515;48.766;9.176;2022-09-01T08:44:33;98621.94;;;17.80;81.80
49611;BME280;35515;48.766;9.176;2022-09-01T08:47:07;98628.59;;;17.84;81.76
49611;BME280;35515;48.766;9.176;2022-09-01T08:49:35;98623.69;;;17.86;82.12
49611;BME280;35515;48.766;9.176;2022-09-01T08:52:09;98626.06;;;17.95;82.12
49611;BME280;35515;48.766;9.176;2022-09-01T08:54:43;98628.84;;;17.83;82.86
49611;BME280;35515;48.766;9.176;2022-09-01T08:57:14;98628.03;;;17.82;82.89
49611;BME280;35515;48.766;9.176;2022-09-01T08:59:41;98631.31;;;17.84;82.43
49611;BME280;35515;48.766;9.176;2022-09-01T09:02:24;98623.69;;;17.86;82.17
49611;BME280;35515;48.766;9.176;2022-09-01T09:05:02;98629.28;;;17.92;82.19
49611;BME280;35515;48.766;9.176;2022-09-01T09:07:42;98632.84;;;17.92;81.90
49611;BME280;35515;48.766;9.176;2022-09-01T09:10:16;98632.59;;;17.94;81.78
49611;BME280;35515;48.766;9.176;2022-09-01T09:12:52;98636.50;;;18.15;80.47
49611;BME280;35515;48.766;9.176;2022-09-01T09:15:26;98635.16;;;18.17;79.33
49611;BME280;35515;48.766;9.176;2022-09-01T09:18:09;98634.34;;;18.17;78.80
49611;BME280;35515;48.766;9.176;2022-09-01T09:20:39;98633.72;;;18.32;78.34
49611;BME280;35515;48.766;9.176;2022-09-01T09:23:21;98628.59;;;18.18;78.85
49611;BME280;35515;48.766;9.176;2022-09-01T09:25:50;98625.88;;;18.18;78.79
49611;BME280;35515;48.766;9.176;2022-09-01T09:28:16;98627.75;;;18.18;78.91
49611;BME280;35515;48.766;9.176;2022-09-01T09:30:43;98631.16;;;18.25;78.68
49611;BME280;35515;48.766;9.176;2022-09-01T09:33:32;98631.50;;;18.29;78.26
49611;BME280;35515;48.766;9.176;2022-09-01T09:36:15;98624.72;;;18.36;77.85
49611;BME280;35515;48.766;9.176;2022-09-01T09:38:43;98633.13;;;18.30;78.63
49611;BME280;35515;48.766;9.176;2022-09-01T09:41:15;98630.16;;;18.31;78.85
49611;BME280;35515;48.766;9.176;2022-09-01T09:43:44;98633.09;;;18.47;77.90
49611;BME280;35515;48.766;9.176;2022-09-01T09:46:21;98629.63;;;18.51;77.79
49611;BME280;35515;48.766;9.176;2022-09-01T09:49:05;98632.91;;;18.53;77.68
49611;BME280;35515;48.766;9.176;2022-09-01T09:51:32;98625.75;;;18.52;77.15
49611;BME280;35515;48.766;9.176;2022-09-01T09:54:10;98628.50;;;18.52;77.92
49611;BME280;35515;48.766;9.176;2022-09-01T09:56:38;98621.44;;;18.57;76.88
49611;BME280;35515;48.766;9.176;2022-09-01T09:59:26;98609.97;;;18.60;77.18
49611;BME280;35515;48.766;9.176;2022-09-01T10:01:56;98612.78;;;18.65;76.63
49611;BME280;35515;48.766;9.176;2022-09-01T10:04:37;98611.94;;;18.86;74.99
49611;BME280;35515;48.766;9.176;2022-09-01T10:07:29;98614.69;;;18.86;74.28
49611;BME280;35515;48.766;9.176;2022-09-01T10:09:58;98613.22;;;19.01;73.02
49611;BME280;35515;48.766;9.176;2022-09-01T10:12:26;98612.69;;;19.04;72.01
49611;BME280;35515;48.766;9.176;2022-09-01T10:14:56;98622.59;;;19.05;71.74
49611;BME280;35515;48.766;9.176;2022-09-01T10:17:28;98610.97;;;18.98;71.97
49611;BME280;35515;48.766;9.176;2022-09-01T10:20:01;98603.78;;;18.92;72.47
49611;BME280;35515;48.766;9.176;2022-09-01T10:22:30;98614.84;;;18.97;71.25
49611;BME280;35515;48.766;9.176;2022-09-01T10:24:57;98608.28;;;19.03;71.21
49611;BME280;35515;48.766;9.176;2022-09-01T10:27:27;98611.28;;;19.24;70.70
49611;BME280;35515;48.766;9.176;2022-09-01T10:29:59;98617.84;;;19.23;70.98
49611;BME280;35515;48.766;9.176;2022-09-01T10:32:31;98615.03;;;19.17;71.58
49611;BME280;35515;48.766;9.176;2022-09-01T10:35:01;98610.38;;;19.18;71.17
49611;BME280;35515;48.766;9.176;2022-09-01T10:37:29;98611.47;;;19.17;70.98
49611;BME280;35515;48.766;9.176;2022-09-01T10:40:16;98602.44;;;19.21;70.55
49611;BME280;35515;48.766;9.176;2022-09-01T10:42:45;98605.72;;;19.18;70.69
49611;BME280;35515;48.766;9.176;2022-09-01T10:45:18;98601.69;;;19.26;69.22
49611;BME280;35515;48.766;9.176;2022-09-01T10:47:47;98597.31;;;19.30;69.62
49611;BME280;35515;48.766;9.176;2022-09-01T10:50:27;98586.94;;;19.37;66.90
49611;BME280;35515;48.766;9.176;2022-09-01T10:53:05;98594.41;;;19.42;66.51
49611;BME280;35515;48.766;9.176;2022-09-01T10:55:42;98598.25;;;19.41;65.98
49611;BME280;35515;48.766;9.176;2022-09-01T11:01:16;98596.03;;;19.38;65.44
49611;BME280;35515;48.766;9.176;2022-09-01T11:04:03;98582.03;;;19.40;65.97
49611;BME280;35515;48.766;9.176;2022-09-01T11:06:55;98574.13;;;19.48;65.53
49611;BME280;35515;48.766;9.176;2022-09-01T11:09:28;98586.56;;;19.56;65.41
49611;BME280;35515;48.766;9.176;2022-09-01T11:14:59;98581.34;;;19.54;65.40
49611;BME280;35515;48.766;9.176;2022-09-01T11:17:28;98579.13;;;19.57;65.79
49611;BME280;35515;48.766;9.176;2022-09-01T11:20:04;98577.28;;;19.62;65.46
49611;BME280;35515;48.766;9.176;2022-09-01T11:22:36;98585.84;;;19.71;65.59
49611;BME280;35515;48.766;9.176;2022-09-01T11:27:58;98578.31;;;19.88;66.13
49611;BME280;35515;48.766;9.176;2022-09-01T11:30:33;98578.97;;;20.01;65.82
49611;BME280;35515;48.766;9.176;2022-09-01T11:33:10;98574.78;;;19.93;65.90
49611;BME280;35515;48.766;9.176;2022-09-01T11:35:39;98567.38;;;19.99;65.35
49611;BME280;35515;48.766;9.176;2022-09-01T11:38:10;98564.88;;;19.92;65.69
49611;BME280;35515;48.766;9.176;2022-09-01T11:40:37;98556.41;;;20.04;64.75
49611;BME280;35515;48.766;9.176;2022-09-01T11:43:06;98565.13;;;19.91;64.30
49611;BME280;35515;48.766;9.176;2022-09-01T11:45:40;98553.56;;;19.88;65.22
49611;BME280;35515;48.766;9.176;2022-09-01T11:48:10;98558.56;;;19.92;64.55
49611;BME280;35515;48.766;9.176;2022-09-01T11:50:40;98552.81;;;19.98;65.09
49611;BME280;35515;48.766;9.176;2022-09-01T11:53:11;98553.47;;;20.16;64.35
49611;BME280;35515;48.766;9.176;2022-09-01T11:55:40;98553.03;;;20.40;62.64
49611;BME280;35515;48.766;9.176;2022-09-01T11:58:10;98542.84;;;20.40;61.60
49611;BME280;35515;48.766;9.176;2022-09-01T12:00:39;98535.41;;;20.35;62.18
49611;BME280;35515;48.766;9.176;2022-09-01T12:03:19;98545.09;;;20.48;61.62
49611;BME280;35515;48.766;9.176;2022-09-01T12:05:47;98545.69;;;20.55;61.12
49611;BME280;35515;48.766;9.176;2022-09-01T12:08:20;98545.75;;;20.76;60.41
49611;BME280;35515;48.766;9.176;2022-09-01T12:10:46;98554.28;;;20.69;59.90
49611;BME280;35515;48.766;9.176;2022-09-01T12:13:17;98539.06;;;20.62;60.62
49611;BME280;35515;48.766;9.176;2022-09-01T12:15:52;98540.44;;;20.59;59.81
49611;BME280;35515;48.766;9.176;2022-09-01T12:18:21;98529.72;;;20.63;59.23
49611;BME280;35515;48.766;9.176;2022-09-01T12:20:50;98533.31;;;20.63;59.53
49611;BME280;35515;48.766;9.176;2022-09-01T12:23:24;98525.69;;;20.76;58.33
49611;BME280;35515;48.766;9.176;2022-09-01T12:25:52;98526.25;;;20.88;57.57
49611;BME280;35515;48.766;9.176;2022-09-01T12:28:20;98526.25;;;20.88;58.02
49611;BME280;35515;48.766;9.176;2022-09-01T12:30:49;98528.97;;;20.83;58.05
49611;BME280;35515;48.766;9.176;2022-09-01T12:33:17;98523.22;;;20.79;58.88
49611;BME280;35515;48.766;9.176;2022-09-01T12:35:45;98524.31;;;20.94;59.87
49611;BME280;35515;48.766;9.176;2022-09-01T12:38:23;98521.56;;;20.88;59.21
49611;BME280;35515;48.766;9.176;2022-09-01T12:40:52;98525.69;;;20.91;59.68
49611;BME280;35515;48.766;9.176;2022-09-01T12:43:28;98530.38;;;20.91;60.06
49611;BME280;35515;48.766;9.176;2022-09-01T12:45:55;98535.06;;;20.85;59.76
49611;BME280;35515;48.766;9.176;2022-09-01T12:48:26;98528.41;;;20.70;60.32
49611;BME280;35515;48.766;9.176;2022-09-01T12:50:57;98529.78;;;20.73;59.45
49611;BME280;35515;48.766;9.176;2022-09-01T12:53:28;98522.09;;;20.70;58.98
49611;BME280;35515;48.766;9.176;2022-09-01T12:56:25;98528.06;;;20.51;59.39
49611;BME280;35515;48.766;9.176;2022-09-01T12:59:05;98526.66;;;20.49;59.22
49611;BME280;35515;48.766;9.176;2022-09-01T13:01:36;98528.00;;;20.41;59.81
49611;BME280;35515;48.766;9.176;2022-09-01T13:04:13;98526.91;;;20.42;60.09
49611;BME280;35515;48.766;9.176;2022-09-01T13:06:40;98533.56;;;20.51;58.69
49611;BME280;35515;48.766;9.176;2022-09-01T13:09:08;98525.88;;;20.64;58.36
49611;BME280;35515;48.766;9.176;2022-09-01T13:11:34;98519.59;;;20.74;56.91
49611;BME280;35515;48.766;9.176;2022-09-01T13:14:01;98521.53;;;20.73;56.21
49611;BME280;35515;48.766;9.176;2022-09-01T13:16:28;98512.19;;;20.90;55.77
49611;BME280;35515;48.766;9.176;2022-09-01T13:18:55;98508.06;;;20.92;55.41
49611;BME280;35515;48.766;9.176;2022-09-01T13:21:21;98513.88;;;20.91;55.38
49611;BME280;35515;48.766;9.176;2022-09-01T13:23:48;98510.28;;;21.00;55.37